Time;durP1;ratioP1;P1;durP2;ratioP2;P2;SDS_P1;SDS_P2;PMS_P1;PMS_P2;Temp;Humidity;BMP_temperature;BMP_pressure;BME280_temperature;BME280_humidity;BME280_pressure;Samples;Min_cycle;Max_cycle;Signal;HPM_P1;HPM_P2
2022/10/29 00:00:43;;;;;;;21.10;8.57;;;16.10;99.90;;;;;;4932865;29;20442;-45
2022/10/29 00:03:09;;;;;;;27.00;9.57;;;16.00;99.90;;;;;;4930258;29;20450;-45
2022/10/29 00:05:35;;;;;;;22.83;8.47;;;16.00;93.80;;;;;;4931455;29;20206;-46
2022/10/29 00:08:01;;;;;;;24.83;8.60;;;16.00;99.90;;;;;;4934525;29;20902;-45
2022/10/29 00:10:28;;;;;;;24.13;8.50;;;15.90;1.00;;;;;;4932334;29;20556;-45
2022/10/29 00:12:53;;;;;;;20.70;9.43;;;15.90;1.00;;;;;;4934024;29;20275;-45
2022/10/29 00:15:20;;;;;;;22.90;7.87;;;15.80;1.00;;;;;;4929231;29;20520;-45
2022/10/29 00:17:45;;;;;;;17.07;7.90;;;15.70;1.00;;;;;;4930010;29;20187;-45
2022/10/29 00:20:11;;;;;;;20.63;8.50;;;15.60;99.90;;;;;;4929239;29;20457;-46
2022/10/29 00:22:40;;;;;;;31.23;9.07;;;15.60;99.90;;;;;;4932882;29;20209;-45
2022/10/29 00:25:06;;;;;;;18.63;7.90;;;15.60;1.00;;;;;;4931197;29;20225;-45
2022/10/29 00:27:31;;;;;;;20.07;8.33;;;15.60;15.10;;;;;;4934680;29;20450;-45
2022/10/29 00:29:57;;;;;;;24.53;8.80;;;15.50;1.00;;;;;;4925042;29;20285;-45
2022/10/29 00:32:22;;;;;;;19.63;8.57;;;15.50;93.80;;;;;;4933932;29;20677;-45
2022/10/29 00:34:48;;;;;;;28.87;9.43;;;15.40;99.90;;;;;;4931680;29;20796;-46
2022/10/29 00:37:14;;;;;;;26.90;8.90;;;15.40;99.90;;;;;;4933812;29;20206;-46
2022/10/29 00:39:39;;;;;;;22.83;9.20;;;15.30;99.90;;;;;;4933357;29;20202;-45
2022/10/29 00:42:05;;;;;;;25.17;9.20;;;15.20;1.00;;;;;;4933828;29;20189;-45
2022/10/29 00:44:34;;;;;;;18.63;8.40;;;15.20;1.00;;;;;;4931264;29;20179;-45
2022/10/29 00:47:12;;;;;;;23.53;9.43;;;15.20;99.90;;;;;;4932534;29;20230;-45
2022/10/29 00:49:39;;;;;;;28.50;9.30;;;15.10;99.90;;;;;;4933534;29;20449;-52
2022/10/29 00:52:06;;;;;;;24.67;8.40;;;15.10;1.00;;;;;;4933237;29;20453;-45
2022/10/29 00:54:34;;;;;;;21.17;7.93;;;15.00;1.00;;;;;;4933062;29;20489;-46
2022/10/29 00:57:06;;;;;;;30.10;9.37;;;15.00;1.00;;;;;;4932859;29;20925;-45
2022/10/29 00:59:32;;;;;;;23.23;9.03;;;14.90;1.00;;;;;;4932951;29;20453;-45
2022/10/29 01:01:58;;;;;;;20.17;8.43;;;14.90;1.00;;;;;;4932891;29;20442;-46
2022/10/29 01:04:24;;;;;;;26.87;8.60;;;14.90;50.40;;;;;;4932371;29;20269;-45
2022/10/29 01:06:50;;;;;;;19.97;8.63;;;14.90;99.90;;;;;;4933194;29;20190;-46
2022/10/29 01:09:16;;;;;;;25.63;9.00;;;14.90;99.90;;;;;;4933187;29;20449;-46
2022/10/29 01:12:07;;;;;;;31.80;8.80;;;14.80;99.90;;;;;;4932295;29;20481;-48
2022/10/29 01:15:16;;;;;;;25.60;8.83;;;14.80;99.90;;;;;;4925069;29;20637;-47
2022/10/29 01:17:56;;;;;;;36.17;9.03;;;14.70;99.90;;;;;;4931346;29;20426;-47
2022/10/29 01:20:24;;;;;;;31.13;8.77;;;14.70;99.90;;;;;;4933274;29;20481;-47
2022/10/29 01:23:13;;;;;;;21.30;8.17;;;14.70;99.90;;;;;;4933185;29;20446;-47
2022/10/29 01:26:13;;;;;;;25.90;8.43;;;14.60;99.90;;;;;;4933020;29;20817;-47
2022/10/29 01:29:02;;;;;;;28.47;8.70;;;14.60;99.90;;;;;;4932796;29;20753;-48
2022/10/29 01:31:34;;;;;;;18.53;7.50;;;14.60;99.90;;;;;;4922065;29;20469;-48
2022/10/29 01:34:30;;;;;;;17.60;7.53;;;14.60;99.90;;;;;;4931884;29;20501;-48
2022/10/29 01:37:06;;;;;;;23.70;8.83;;;14.50;99.90;;;;;;4921432;29;20827;-48
2022/10/29 01:39:44;;;;;;;26.33;8.33;;;14.50;99.90;;;;;;4932973;29;20445;-48
2022/10/29 01:42:23;;;;;;;27.90;8.40;;;14.40;99.90;;;;;;4930208;29;20438;-48
2022/10/29 01:45:11;;;;;;;40.63;8.40;;;14.40;99.90;;;;;;4925227;29;20474;-49
2022/10/29 01:47:43;;;;;;;22.57;7.77;;;14.30;99.90;;;;;;4928838;29;20492;-47
2022/10/29 01:50:14;;;;;;;26.23;8.60;;;14.30;99.90;;;;;;4933856;29;20532;-48
2022/10/29 01:52:41;;;;;;;22.50;8.70;;;14.20;99.90;;;;;;4934501;29;20452;-45
2022/10/29 01:55:07;;;;;;;27.30;9.00;;;14.20;99.90;;;;;;4926086;29;20456;-45
2022/10/29 01:57:35;;;;;;;31.93;8.10;;;14.10;99.90;;;;;;4928783;29;20465;-45
2022/10/29 02:00:01;;;;;;;31.13;8.43;;;14.10;1.00;;;;;;4935261;29;20805;-46
2022/10/29 02:02:53;;;;;;;24.07;8.80;;;14.10;1.00;;;;;;4935539;29;20454;-45
2022/10/29 02:05:33;;;;;;;25.00;8.73;;;14.10;1.00;;;;;;4929719;29;20194;-45
2022/10/29 02:08:39;;;;;;;24.53;8.47;;;14.10;1.00;;;;;;4932806;29;20556;-46
2022/10/29 02:11:14;;;;;;;28.40;9.97;;;14.10;1.00;;;;;;4934218;29;20485;-47
2022/10/29 02:13:46;;;;;;;28.80;8.97;;;14.00;1.00;;;;;;4936573;29;20406;-46
2022/10/29 02:16:14;;;;;;;24.13;8.57;;;14.00;1.00;;;;;;4934439;29;20437;-46
2022/10/29 02:18:47;;;;;;;21.87;8.30;;;13.90;1.00;;;;;;4936542;29;20405;-47
2022/10/29 02:21:17;;;;;;;20.93;8.37;;;13.90;1.00;;;;;;4935499;29;20472;-47
2022/10/29 02:23:43;;;;;;;33.63;9.43;;;13.80;1.00;;;;;;4935647;29;20441;-47
2022/10/29 02:26:09;;;;;;;30.57;9.20;;;13.80;1.00;;;;;;4935191;29;20420;-46
2022/10/29 02:28:35;;;;;;;23.10;8.43;;;13.80;1.00;;;;;;4934743;29;20936;-46
2022/10/29 02:31:00;;;;;;;23.70;10.90;;;13.70;1.00;;;;;;4935667;29;20274;-46
2022/10/29 02:33:26;;;;;;;26.33;9.37;;;13.80;1.00;;;;;;4934790;29;20724;-46
2022/10/29 02:35:51;;;;;;;24.43;8.93;;;13.80;1.00;;;;;;4934052;29;20192;-46
2022/10/29 02:38:17;;;;;;;27.70;8.83;;;13.70;1.00;;;;;;4934115;29;20202;-47
2022/10/29 02:40:43;;;;;;;36.07;9.70;;;13.70;1.00;;;;;;4933798;29;20712;-47
2022/10/29 02:43:08;;;;;;;31.80;10.00;;;13.60;1.00;;;;;;4934690;29;20201;-47
2022/10/29 02:45:34;;;;;;;35.47;9.40;;;13.60;1.00;;;;;;4934767;29;20199;-46
2022/10/29 02:47:59;;;;;;;30.70;9.70;;;13.60;1.00;;;;;;4933922;29;20246;-46
2022/10/29 02:50:25;;;;;;;29.27;9.30;;;13.60;1.00;;;;;;4931453;29;20245;-46
2022/10/29 02:52:51;;;;;;;32.00;9.47;;;13.50;1.00;;;;;;4934732;29;20194;-46
2022/10/29 02:55:16;;;;;;;32.63;9.47;;;13.50;1.00;;;;;;4934783;29;20258;-46
2022/10/29 02:57:43;;;;;;;32.60;10.10;;;13.50;1.00;;;;;;4935170;29;20522;-46
2022/10/29 03:00:10;;;;;;;31.80;10.00;;;13.50;1.00;;;;;;4934593;29;20204;-46
2022/10/29 03:02:35;;;;;;;19.03;8.90;;;13.40;1.00;;;;;;4932904;29;20462;-46
2022/10/29 03:05:01;;;;;;;31.03;9.90;;;13.40;1.00;;;;;;4934690;29;20442;-46
2022/10/29 03:07:26;;;;;;;26.37;9.00;;;13.40;1.00;;;;;;4934296;29;20676;-46
2022/10/29 03:09:52;;;;;;;33.73;12.57;;;13.40;1.00;;;;;;4932837;29;20634;-46
2022/10/29 03:12:18;;;;;;;42.23;13.07;;;13.40;1.00;;;;;;4934198;29;20277;-46
2022/10/29 03:14:43;;;;;;;42.50;13.90;;;13.40;1.00;;;;;;4933000;29;20186;-46
2022/10/29 03:17:09;;;;;;;35.77;12.60;;;13.60;1.00;;;;;;4935541;29;20198;-46
2022/10/29 03:19:35;;;;;;;41.40;13.00;;;13.70;1.00;;;;;;4934648;29;20724;-47
2022/10/29 03:22:00;;;;;;;30.50;11.10;;;13.70;1.00;;;;;;4934420;29;20249;-47
2022/10/29 03:24:26;;;;;;;38.97;11.53;;;13.70;1.00;;;;;;4934379;29;20198;-46
2022/10/29 03:26:51;;;;;;;49.77;13.40;;;13.70;1.00;;;;;;4934538;29;20199;-46
2022/10/29 03:29:17;;;;;;;36.47;12.83;;;13.80;1.00;;;;;;4929649;29;20265;-47
2022/10/29 03:31:42;;;;;;;37.17;12.70;;;13.80;1.00;;;;;;4925161;29;20207;-50
2022/10/29 03:34:08;;;;;;;31.90;12.83;;;13.80;1.00;;;;;;4918628;29;20183;-50
2022/10/29 03:36:34;;;;;;;36.63;14.17;;;13.90;1.00;;;;;;4933757;29;20253;-46
2022/10/29 03:38:59;;;;;;;43.27;14.03;;;13.90;1.00;;;;;;4932733;29;20191;-46
2022/10/29 03:41:25;;;;;;;45.40;14.27;;;13.90;1.00;;;;;;4934517;29;20190;-47
2022/10/29 03:43:50;;;;;;;38.60;13.67;;;13.90;1.00;;;;;;4932011;29;20201;-46
2022/10/29 03:46:16;;;;;;;34.73;13.10;;;14.00;1.00;;;;;;4933395;29;20613;-46
2022/10/29 03:48:41;;;;;;;39.30;13.37;;;13.90;1.00;;;;;;4933583;29;20246;-47
2022/10/29 03:51:08;;;;;;;44.40;13.83;;;14.00;1.00;;;;;;4934099;29;20209;-47
2022/10/29 03:53:35;;;;;;;38.33;13.00;;;14.00;1.00;;;;;;4934282;29;20704;-47
2022/10/29 03:56:01;;;;;;;44.10;13.90;;;14.00;1.00;;;;;;4934651;29;20422;-47
2022/10/29 03:58:27;;;;;;;36.77;13.70;;;14.10;1.00;;;;;;4934712;29;20418;-46
2022/10/29 04:00:58;;;;;;;33.57;13.57;;;14.10;1.00;;;;;;4931659;29;20446;-46
2022/10/29 04:03:25;;;;;;;46.40;13.27;;;14.10;1.00;;;;;;4926569;29;20456;-46
2022/10/29 04:05:51;;;;;;;35.97;12.67;;;14.10;1.00;;;;;;4934135;29;20784;-46
2022/10/29 04:08:17;;;;;;;39.53;12.30;;;14.10;1.00;;;;;;4933742;29;20441;-45
2022/10/29 04:10:44;;;;;;;35.93;12.00;;;14.10;1.00;;;;;;4931658;29;20206;-46
2022/10/29 04:13:10;;;;;;;42.00;13.03;;;14.10;1.00;;;;;;4923903;29;20626;-46
2022/10/29 04:15:35;;;;;;;33.67;12.50;;;14.10;1.00;;;;;;4929084;29;20446;-45
2022/10/29 04:18:01;;;;;;;30.47;12.00;;;14.10;1.00;;;;;;4932615;29;20672;-45
2022/10/29 04:20:26;;;;;;;32.83;12.90;;;14.10;1.00;;;;;;4932942;29;20720;-46
2022/10/29 04:22:52;;;;;;;33.20;12.20;;;14.10;1.00;;;;;;4934276;29;20201;-46
2022/10/29 04:25:17;;;;;;;34.13;12.00;;;14.00;1.00;;;;;;4932460;29;20273;-46
2022/10/29 04:27:43;;;;;;;29.93;13.20;;;14.00;1.00;;;;;;4934278;29;20191;-46
2022/10/29 04:30:09;;;;;;;39.77;12.80;;;14.00;1.00;;;;;;4931993;29;20233;-47
2022/10/29 04:32:35;;;;;;;38.10;12.67;;;14.00;1.00;;;;;;4932347;29;20187;-48
2022/10/29 04:35:00;;;;;;;43.40;14.73;;;13.90;1.00;;;;;;4931962;29;20450;-49
2022/10/29 04:37:28;;;;;;;43.23;14.40;;;14.00;1.00;;;;;;4928548;29;20194;-50
2022/10/29 04:39:54;;;;;;;38.17;15.17;;;13.90;1.00;;;;;;4926949;29;20195;-49
2022/10/29 04:42:19;;;;;;;36.57;13.67;;;13.90;1.00;;;;;;4933554;29;20442;-51
2022/10/29 04:44:45;;;;;;;38.87;12.90;;;13.90;1.00;;;;;;4932374;29;20254;-49
2022/10/29 04:47:11;;;;;;;37.47;13.67;;;13.90;1.00;;;;;;4932486;29;20238;-49
2022/10/29 04:49:39;;;;;;;32.87;12.43;;;13.90;1.00;;;;;;4920507;29;20642;-49
2022/10/29 04:52:05;;;;;;;32.90;12.87;;;13.90;1.00;;;;;;4933922;29;20649;-49
2022/10/29 04:54:30;;;;;;;26.50;12.40;;;13.90;1.00;;;;;;4933059;29;20449;-47
2022/10/29 04:56:56;;;;;;;42.13;15.00;;;13.90;1.00;;;;;;4933793;29;20207;-48
2022/10/29 04:59:21;;;;;;;31.33;13.60;;;13.90;1.00;;;;;;4932051;29;20249;-46
2022/10/29 05:01:47;;;;;;;31.33;12.00;;;13.90;1.00;;;;;;4932505;29;20213;-46
2022/10/29 05:04:13;;;;;;;33.80;13.70;;;13.90;1.00;;;;;;4932677;29;20213;-46
2022/10/29 05:06:38;;;;;;;36.70;13.53;;;13.90;1.00;;;;;;4932633;29;20638;-46
2022/10/29 05:09:04;;;;;;;29.17;11.07;;;13.90;1.00;;;;;;4933069;29;20269;-47
2022/10/29 05:11:30;;;;;;;40.57;13.70;;;13.90;1.00;;;;;;4931856;29;20228;-46
2022/10/29 05:13:55;;;;;;;39.80;13.33;;;13.90;1.00;;;;;;4930771;29;20277;-46
2022/10/29 05:16:21;;;;;;;40.97;14.47;;;14.00;1.00;;;;;;4932304;29;20190;-46
2022/10/29 05:18:46;;;;;;;32.23;11.63;;;13.90;1.00;;;;;;4931815;29;20535;-47
2022/10/29 05:21:12;;;;;;;38.17;14.20;;;13.90;1.00;;;;;;4932755;29;20250;-46
2022/10/29 05:23:38;;;;;;;33.03;14.67;;;14.00;1.00;;;;;;4933176;29;20202;-46
2022/10/29 05:26:03;;;;;;;42.80;15.27;;;14.00;1.00;;;;;;4936371;29;20245;-46
2022/10/29 05:28:29;;;;;;;42.00;16.23;;;14.10;1.00;;;;;;4931347;29;20201;-46
2022/10/29 05:30:54;;;;;;;30.43;13.87;;;14.10;1.00;;;;;;4935241;29;20308;-46
2022/10/29 05:33:23;;;;;;;38.37;15.33;;;14.00;1.00;;;;;;4935770;29;20198;-46
2022/10/29 05:35:49;;;;;;;46.70;16.60;;;14.10;1.00;;;;;;4925057;29;20202;-46
2022/10/29 05:38:15;;;;;;;25.87;14.07;;;14.00;1.00;;;;;;4933973;29;20477;-46
2022/10/29 05:40:43;;;;;;;41.57;16.03;;;14.00;1.00;;;;;;4935680;29;20542;-46
2022/10/29 05:43:13;;;;;;;49.43;16.33;;;14.00;1.00;;;;;;4937231;29;20477;-46
2022/10/29 05:45:38;;;;;;;34.27;15.90;;;14.00;1.00;;;;;;4935190;29;20460;-45
2022/10/29 05:48:04;;;;;;;41.70;15.97;;;14.00;1.00;;;;;;4936384;29;20497;-46
2022/10/29 05:50:31;;;;;;;41.43;16.00;;;14.00;1.00;;;;;;4936435;29;20260;-47
2022/10/29 05:53:01;;;;;;;40.27;15.13;;;13.90;1.00;;;;;;4937126;29;20705;-47
2022/10/29 05:55:28;;;;;;;43.07;15.73;;;14.00;1.00;;;;;;4934244;29;20438;-47
2022/10/29 05:58:02;;;;;;;40.50;15.87;;;14.00;1.00;;;;;;4936927;29;20414;-46
2022/10/29 06:00:30;;;;;;;38.13;14.73;;;13.90;1.00;;;;;;4934644;29;20433;-47
2022/10/29 06:02:56;;;;;;;46.53;16.10;;;13.90;1.00;;;;;;4936192;29;20502;-47
2022/10/29 06:05:21;;;;;;;41.97;16.40;;;13.90;1.00;;;;;;4935471;29;20445;-46
2022/10/29 06:07:57;;;;;;;36.30;16.40;;;13.90;1.00;;;;;;4934791;29;20230;-47
2022/10/29 06:10:25;;;;;;;38.43;16.70;;;13.90;1.00;;;;;;4934727;29;20679;-46
2022/10/29 06:12:50;;;;;;;35.17;16.20;;;13.90;1.00;;;;;;4932146;29;20929;-47
2022/10/29 06:15:16;;;;;;;33.17;15.17;;;13.90;1.00;;;;;;4929319;29;20442;-49
2022/10/29 06:17:44;;;;;;;32.33;14.40;;;13.90;1.00;;;;;;4935272;29;20199;-50
2022/10/29 06:20:11;;;;;;;39.67;15.13;;;13.80;1.00;;;;;;4934744;29;20446;-50
2022/10/29 06:22:36;;;;;;;43.83;15.67;;;13.80;1.00;;;;;;4936055;29;20433;-46
2022/10/29 06:25:02;;;;;;;43.63;14.43;;;13.80;1.00;;;;;;4935689;29;20453;-46
2022/10/29 06:27:28;;;;;;;32.27;13.60;;;13.80;1.00;;;;;;4935767;29;20683;-46
2022/10/29 06:29:53;;;;;;;27.70;12.63;;;13.80;1.00;;;;;;4932427;29;20430;-46
2022/10/29 06:32:19;;;;;;;29.27;12.30;;;13.80;1.00;;;;;;4948778;29;20194;-46
2022/10/29 06:34:45;;;;;;;27.73;12.20;;;13.80;1.00;;;;;;4932964;29;20190;-46
2022/10/29 06:37:10;;;;;;;33.13;13.13;;;13.70;1.00;;;;;;4931346;29;20189;-46
2022/10/29 06:39:36;;;;;;;25.33;12.97;;;13.70;1.00;;;;;;4934231;29;20255;-46
2022/10/29 06:42:02;;;;;;;31.23;13.17;;;13.60;1.00;;;;;;4935854;29;20194;-46
2022/10/29 06:44:28;;;;;;;25.70;12.37;;;13.60;1.00;;;;;;4935749;29;20201;-46
2022/10/29 06:46:53;;;;;;;30.47;13.47;;;13.70;1.00;;;;;;4933997;29;21032;-46
2022/10/29 06:49:19;;;;;;;31.00;12.67;;;13.70;1.00;;;;;;4930277;29;20206;-46
2022/10/29 06:51:45;;;;;;;39.53;13.50;;;13.70;1.00;;;;;;4932462;29;20284;-46
2022/10/29 06:54:11;;;;;;;28.23;12.07;;;13.80;1.00;;;;;;4935149;29;20529;-48
2022/10/29 06:56:37;;;;;;;34.17;13.80;;;13.70;1.00;;;;;;4935575;29;20192;-48
2022/10/29 06:59:02;;;;;;;41.40;14.60;;;13.80;1.00;;;;;;4933180;29;20182;-50
2022/10/29 07:01:31;;;;;;;28.80;14.27;;;13.80;1.00;;;;;;4934970;29;20529;-49
2022/10/29 07:03:57;;;;;;;34.20;13.73;;;13.80;1.00;;;;;;4934762;29;20236;-47
2022/10/29 07:06:23;;;;;;;32.83;14.70;;;13.80;1.00;;;;;;4935761;29;20478;-48
2022/10/29 07:08:49;;;;;;;33.20;14.67;;;13.80;1.00;;;;;;4935807;29;20414;-48
2022/10/29 07:11:14;;;;;;;36.73;15.10;;;13.80;1.00;;;;;;4935561;29;20218;-49
2022/10/29 07:13:40;;;;;;;31.67;14.90;;;13.80;1.00;;;;;;4933322;29;20218;-47
2022/10/29 07:16:06;;;;;;;30.33;14.17;;;13.90;1.00;;;;;;4934357;29;20233;-46
2022/10/29 07:18:32;;;;;;;35.40;15.47;;;13.90;1.00;;;;;;4935414;29;20181;-46
2022/10/29 07:20:57;;;;;;;31.83;14.60;;;13.90;1.00;;;;;;4935572;29;20430;-47
2022/10/29 07:23:23;;;;;;;35.97;16.00;;;13.90;1.00;;;;;;4934692;29;20645;-49
2022/10/29 07:25:52;;;;;;;35.47;15.43;;;14.00;1.00;;;;;;4935310;29;20197;-49
2022/10/29 07:28:19;;;;;;;32.57;15.47;;;14.00;1.00;;;;;;4934301;29;20193;-48
2022/10/29 07:30:47;;;;;;;37.13;16.30;;;14.00;99.90;;;;;;4934953;29;20534;-48
2022/10/29 07:33:13;;;;;;;40.17;17.07;;;14.00;99.90;;;;;;4928071;29;20442;-49
2022/10/29 07:35:39;;;;;;;34.37;17.00;;;14.00;99.90;;;;;;4935104;29;20470;-49
2022/10/29 07:38:06;;;;;;;34.23;17.23;;;13.90;99.90;;;;;;4932910;29;20439;-50
2022/10/29 07:40:31;;;;;;;32.80;16.97;;;14.00;99.90;;;;;;4933043;29;20182;-49
2022/10/29 07:42:57;;;;;;;32.80;16.33;;;13.90;99.90;;;;;;4916134;29;20431;-48
2022/10/29 07:45:22;;;;;;;42.77;18.13;;;13.90;99.90;;;;;;4933888;29;20190;-49
2022/10/29 07:47:56;;;;;;;41.83;16.70;;;13.90;99.90;;;;;;4934037;29;20245;-48
2022/10/29 07:50:22;;;;;;;39.30;17.90;;;13.90;99.90;;;;;;4932927;29;20214;-49
2022/10/29 07:52:48;;;;;;;40.07;18.57;;;13.90;99.90;;;;;;4934585;29;20529;-46
2022/10/29 07:55:13;;;;;;;51.50;19.50;;;13.90;99.90;;;;;;4934388;29;20186;-46
2022/10/29 07:57:39;;;;;;;43.90;18.50;;;14.00;99.90;;;;;;4929140;29;20466;-46
2022/10/29 08:00:05;;;;;;;36.73;18.60;;;14.00;99.90;;;;;;4931457;29;20194;-46
2022/10/29 08:02:31;;;;;;;39.37;18.77;;;14.00;99.90;;;;;;4927974;29;20183;-46
2022/10/29 08:04:56;;;;;;;45.00;18.20;;;14.10;99.90;;;;;;4931261;29;20438;-47
2022/10/29 08:07:22;;;;;;;37.63;18.07;;;14.10;99.90;;;;;;4934591;29;20194;-46
2022/10/29 08:09:47;;;;;;;35.83;17.40;;;14.20;99.90;;;;;;4934420;29;20175;-47
2022/10/29 08:12:13;;;;;;;40.23;18.87;;;14.30;99.90;;;;;;4931757;29;20218;-46
2022/10/29 08:14:38;;;;;;;40.43;19.57;;;14.30;99.90;;;;;;4933721;29;20267;-47
2022/10/29 08:17:04;;;;;;;40.40;18.87;;;14.30;99.90;;;;;;4931492;29;20201;-47
2022/10/29 08:19:30;;;;;;;34.63;16.73;;;14.30;99.90;;;;;;4921189;29;20182;-46
2022/10/29 08:21:55;;;;;;;45.90;18.47;;;14.30;99.90;;;;;;4917061;29;20716;-46
2022/10/29 08:24:21;;;;;;;45.47;19.70;;;14.30;99.90;;;;;;4914446;29;20230;-46
2022/10/29 08:26:49;;;;;;;43.27;18.60;;;14.40;99.90;;;;;;4911653;29;21163;-48
2022/10/29 08:29:14;;;;;;;48.63;21.13;;;14.40;99.90;;;;;;4913908;29;20202;-46
2022/10/29 08:31:40;;;;;;;45.00;19.80;;;14.50;99.90;;;;;;4911675;29;20475;-47
2022/10/29 08:34:05;;;;;;;45.60;18.97;;;14.50;99.90;;;;;;4912610;29;20209;-45
2022/10/29 08:36:31;;;;;;;42.70;19.63;;;14.60;99.90;;;;;;4924748;29;20198;-49
2022/10/29 08:38:57;;;;;;;45.27;19.43;;;14.60;99.90;;;;;;4930631;29;20633;-47
2022/10/29 08:41:44;;;;;;;50.13;20.80;;;14.70;99.90;;;;;;4911872;29;20193;-47
2022/10/29 08:44:32;;;;;;;45.07;20.57;;;14.80;99.90;;;;;;4913927;29;20199;-48
2022/10/29 08:47:19;;;;;;;41.70;18.70;;;14.90;99.90;;;;;;4915457;29;20524;-46
2022/10/29 08:50:16;;;;;;;38.83;17.70;;;14.90;99.90;;;;;;4912172;29;22384;-45
2022/10/29 08:52:43;;;;;;;43.50;19.77;;;14.90;99.90;;;;;;4912123;29;20940;-46
2022/10/29 08:55:14;;;;;;;50.40;19.30;;;14.90;99.90;;;;;;4912113;29;21321;-45
2022/10/29 08:57:51;;;;;;;50.57;19.67;;;14.90;99.90;;;;;;4912263;29;20481;-46
2022/10/29 09:00:20;;;;;;;59.30;20.67;;;14.90;99.90;;;;;;4912689;29;20434;-47
2022/10/29 09:02:51;;;;;;;49.47;20.70;;;14.90;98.20;;;;;;4912164;29;20446;-47
2022/10/29 09:05:23;;;;;;;45.17;19.83;;;14.80;99.90;;;;;;4912659;29;20438;-48
2022/10/29 09:08:08;;;;;;;41.23;18.27;;;14.80;99.90;;;;;;4917213;29;20446;-48
2022/10/29 09:10:46;;;;;;;48.73;19.40;;;14.80;99.90;;;;;;4913182;29;20512;-48
2022/10/29 09:13:36;;;;;;;50.57;22.60;;;14.80;99.90;;;;;;4911091;29;20442;-48
2022/10/29 09:16:17;;;;;;;41.97;19.60;;;14.80;99.90;;;;;;4912875;29;20433;-48
2022/10/29 09:18:54;;;;;;;48.30;22.80;;;15.00;99.90;;;;;;4911651;29;20520;-48
2022/10/29 09:21:32;;;;;;;61.50;23.73;;;15.10;99.90;;;;;;4913131;29;20445;-48
2022/10/29 09:24:10;;;;;;;55.73;25.00;;;15.10;99.90;;;;;;4933283;29;20440;-48
2022/10/29 09:26:58;;;;;;;122.27;61.07;;;15.10;78.40;;;;;;4929927;29;20450;-47
2022/10/29 09:29:46;;;;;;;100.27;45.43;;;15.30;99.90;;;;;;4920994;29;20462;-47
2022/10/29 09:32:25;;;;;;;82.83;45.50;;;15.70;99.90;;;;;;4930021;29;20465;-45
2022/10/29 09:34:59;;;;;;;41.60;21.17;;;16.00;99.90;;;;;;4919353;29;20442;-45
2022/10/29 09:37:47;;;;;;;42.83;19.60;;;16.20;1.00;;;;;;4932884;29;20487;-45
2022/10/29 09:40:28;;;;;;;44.87;19.10;;;16.30;99.90;;;;;;4931751;29;20458;-45
2022/10/29 09:42:54;;;;;;;42.63;18.67;;;16.40;99.90;;;;;;4932479;29;20473;-45
2022/10/29 09:45:26;;;;;;;38.23;19.40;;;16.60;99.90;;;;;;4932717;29;21062;-45
2022/10/29 09:48:06;;;;;;;33.23;17.23;;;16.90;99.90;;;;;;4932035;29;21220;-45
2022/10/29 09:51:00;;;;;;;32.90;17.00;;;17.00;99.90;;;;;;4932318;29;20474;-45
2022/10/29 09:53:26;;;;;;;35.00;15.93;;;17.00;89.80;;;;;;4931575;29;20534;-45
2022/10/29 09:55:52;;;;;;;29.30;16.50;;;16.90;1.00;;;;;;4916431;29;20522;-45
2022/10/29 09:58:25;;;;;;;34.90;17.10;;;16.70;63.80;;;;;;4932949;29;20170;-44
2022/10/29 10:00:52;;;;;;;40.17;18.80;;;16.60;1.00;;;;;;4928935;29;20525;-45
2022/10/29 10:03:44;;;;;;;38.70;19.50;;;16.60;1.00;;;;;;4914508;29;20924;-45
2022/10/29 10:06:13;;;;;;;31.37;17.60;;;16.50;1.00;;;;;;4926848;29;20452;-45
2022/10/29 10:09:00;;;;;;;53.17;22.80;;;16.60;1.00;;;;;;4933216;29;20429;-44
2022/10/29 10:11:34;;;;;;;43.30;19.70;;;16.60;1.00;;;;;;4932323;29;20832;-45
2022/10/29 10:14:06;;;;;;;35.43;19.27;;;16.50;1.00;;;;;;4936296;29;20456;-45
2022/10/29 10:16:33;;;;;;;35.13;17.93;;;16.50;93.60;;;;;;4930732;29;20446;-45
2022/10/29 10:18:58;;;;;;;27.90;16.43;;;16.60;54.80;;;;;;4935658;29;20793;-46
2022/10/29 10:21:33;;;;;;;37.73;18.60;;;16.60;1.00;;;;;;4935941;29;20578;-45
2022/10/29 10:23:59;;;;;;;42.30;17.87;;;16.60;87.10;;;;;;4936153;29;20209;-46
2022/10/29 10:26:27;;;;;;;41.63;17.90;;;17.00;99.90;;;;;;4931639;29;20430;-45
2022/10/29 10:29:13;;;;;;;36.30;18.53;;;17.60;1.00;;;;;;4936522;29;20923;-45
2022/10/29 10:31:41;;;;;;;36.00;17.20;;;18.00;99.90;;;;;;4930524;29;20466;-45
2022/10/29 10:34:24;;;;;;;40.03;17.60;;;18.00;1.00;;;;;;4930214;29;20430;-45
2022/10/29 10:37:17;;;;;;;34.67;18.27;;;17.80;99.90;;;;;;4922716;29;20442;-45
2022/10/29 10:39:55;;;;;;;37.67;17.90;;;17.60;1.00;;;;;;4934493;29;20445;-45
2022/10/29 10:42:29;;;;;;;35.77;17.07;;;17.30;21.30;;;;;;4933719;29;20759;-46
2022/10/29 10:45:00;;;;;;;39.93;18.00;;;17.10;34.40;;;;;;4933976;29;21254;-45
2022/10/29 10:47:30;;;;;;;46.40;18.33;;;17.00;99.90;;;;;;4936141;29;20481;-45
2022/10/29 10:50:23;;;;;;;31.30;17.30;;;16.90;1.00;;;;;;4930968;29;20775;-45
2022/10/29 10:52:53;;;;;;;31.63;16.77;;;16.90;1.00;;;;;;4935355;29;20444;-45
2022/10/29 10:55:21;;;;;;;45.17;17.70;;;16.80;1.00;;;;;;4932682;29;20430;-45
2022/10/29 10:58:02;;;;;;;33.23;17.70;;;16.80;1.00;;;;;;4934655;29;20427;-45
2022/10/29 11:00:33;;;;;;;41.03;17.67;;;16.70;1.00;;;;;;4935108;29;20800;-45
2022/10/29 11:03:07;;;;;;;33.60;16.50;;;16.60;94.20;;;;;;4934848;29;20438;-45
2022/10/29 11:05:54;;;;;;;34.33;16.10;;;16.70;99.90;;;;;;4934472;29;20448;-45
2022/10/29 11:08:27;;;;;;;35.10;16.27;;;16.80;99.90;;;;;;4917010;29;20616;-45
2022/10/29 11:11:00;;;;;;;35.40;16.83;;;17.00;99.90;;;;;;4934204;29;20548;-45
2022/10/29 11:13:29;;;;;;;30.93;15.40;;;17.30;99.90;;;;;;4931858;29;20443;-45
2022/10/29 11:16:12;;;;;;;37.97;15.50;;;17.40;47.50;;;;;;4930892;29;20524;-45
2022/10/29 11:18:50;;;;;;;28.43;16.13;;;17.40;13.10;;;;;;4934371;29;20466;-45
2022/10/29 11:21:28;;;;;;;35.47;14.90;;;17.40;1.00;;;;;;4934195;29;20446;-44
2022/10/29 11:24:22;;;;;;;30.10;15.07;;;17.40;1.00;;;;;;4921190;29;20446;-44
2022/10/29 11:26:59;;;;;;;30.07;13.97;;;17.50;1.00;;;;;;4934141;29;20453;-45
2022/10/29 11:29:28;;;;;;;31.80;13.23;;;17.60;99.90;;;;;;4934332;29;20430;-45
2022/10/29 11:32:19;;;;;;;34.83;13.80;;;17.70;99.90;;;;;;4927441;29;20806;-44
2022/10/29 11:35:07;;;;;;;22.40;12.57;;;17.80;1.00;;;;;;4932424;29;20835;-44
2022/10/29 11:38:00;;;;;;;33.93;14.27;;;17.80;99.90;;;;;;4927022;29;20443;-45
2022/10/29 11:40:40;;;;;;;30.57;13.27;;;17.80;1.00;;;;;;4933764;29;20477;-45
2022/10/29 11:43:14;;;;;;;33.40;13.40;;;17.90;1.00;;;;;;4928853;29;20769;-45
2022/10/29 11:46:05;;;;;;;31.50;13.27;;;17.80;1.00;;;;;;4914904;29;20898;-44
2022/10/29 11:49:02;;;;;;;32.17;14.10;;;17.70;99.90;;;;;;4927417;29;20509;-44
2022/10/29 11:51:50;;;;;;;39.37;14.87;;;17.70;99.90;;;;;;4897013;29;20490;-44
2022/10/29 11:54:29;;;;;;;26.83;12.80;;;17.70;99.90;;;;;;4920152;29;20809;-44
2022/10/29 11:57:02;;;;;;;31.27;13.13;;;17.70;1.00;;;;;;4932900;29;20434;-45
2022/10/29 11:59:33;;;;;;;30.73;14.83;;;17.70;99.90;;;;;;4933150;29;20452;-46
2022/10/29 12:02:22;;;;;;;27.90;13.50;;;17.70;99.90;;;;;;4933456;29;20437;-46
2022/10/29 12:05:08;;;;;;;31.87;13.10;;;17.70;99.90;;;;;;4921997;29;20955;-47
2022/10/29 12:07:40;;;;;;;27.90;13.13;;;17.70;99.90;;;;;;4928273;29;20542;-46
2022/10/29 12:10:37;;;;;;;27.53;12.93;;;17.80;99.90;;;;;;4917484;29;20929;-46
2022/10/29 12:13:16;;;;;;;24.17;12.30;;;17.90;1.00;;;;;;4931084;29;20442;-47
2022/10/29 12:16:03;;;;;;;39.47;13.50;;;17.90;1.00;;;;;;4933860;29;20426;-46
2022/10/29 12:18:46;;;;;;;25.33;11.83;;;17.90;1.00;;;;;;4933460;29;20422;-47
2022/10/29 12:21:38;;;;;;;27.93;11.87;;;17.90;1.00;;;;;;4934174;29;20411;-46
2022/10/29 12:24:09;;;;;;;26.50;12.20;;;18.00;1.00;;;;;;4931742;29;20445;-45
2022/10/29 12:26:43;;;;;;;28.77;11.67;;;18.20;99.90;;;;;;4930433;29;20502;-47
2022/10/29 12:29:31;;;;;;;29.80;12.80;;;18.30;1.00;;;;;;4933422;29;20434;-45
2022/10/29 12:32:19;;;;;;;25.30;10.80;;;18.40;99.90;;;;;;4933876;29;20936;-47
2022/10/29 12:35:04;;;;;;;28.27;12.73;;;18.30;99.90;;;;;;4930971;29;20453;-46
2022/10/29 12:38:00;;;;;;;22.57;11.13;;;18.30;3.00;;;;;;4932851;29;20437;-47
2022/10/29 12:40:32;;;;;;;30.57;11.60;;;18.20;99.90;;;;;;4930907;29;20429;-46
2022/10/29 12:43:10;;;;;;;25.83;10.63;;;18.10;99.90;;;;;;4929282;29;20454;-45
2022/10/29 12:45:39;;;;;;;32.40;12.93;;;18.10;99.90;;;;;;4926219;29;20851;-46
2022/10/29 12:48:33;;;;;;;28.83;12.17;;;18.20;99.90;;;;;;4928709;29;21046;-46
2022/10/29 12:51:07;;;;;;;24.63;10.47;;;18.30;1.00;;;;;;4926616;29;20515;-46
2022/10/29 12:54:04;;;;;;;20.70;10.50;;;18.40;99.90;;;;;;4920426;29;20454;-45
2022/10/29 12:56:31;;;;;;;24.13;10.07;;;18.50;99.90;;;;;;4928234;29;20442;-46